createdAt,value
2023-01-15T00:00:43.560Z,992.61
2023-01-15T00:01:43.553Z,992.68
2023-01-15T00:02:43.565Z,992.70
2023-01-15T00:03:43.558Z,992.71
2023-01-15T00:04:43.529Z,992.67
2023-01-15T00:05:43.519Z,992.70
2023-01-15T00:06:43.494Z,992.71
2023-01-15T00:07:43.482Z,992.71
2023-01-15T00:08:43.471Z,992.68
2023-01-15T00:09:43.473Z,992.71
2023-01-15T00:10:43.449Z,992.58
2023-01-15T00:11:43.457Z,992.62
2023-01-15T00:12:43.427Z,992.60
2023-01-15T00:13:43.415Z,992.63
2023-01-15T00:14:43.427Z,992.55
2023-01-15T00:15:43.418Z,992.59
2023-01-15T00:16:43.387Z,992.54
2023-01-15T00:17:43.374Z,992.56
2023-01-15T00:18:43.360Z,992.65
2023-01-15T00:19:43.360Z,992.69
2023-01-15T00:20:43.338Z,992.63
2023-01-15T00:21:43.339Z,992.62
2023-01-15T00:22:43.319Z,992.69
2023-01-15T00:23:43.311Z,992.65
2023-01-15T00:24:43.317Z,992.65
2023-01-15T00:25:43.282Z,992.59
2023-01-15T00:26:43.272Z,992.62
2023-01-15T00:27:43.273Z,992.66
2023-01-15T00:28:43.252Z,992.67
2023-01-15T00:29:43.275Z,992.57
2023-01-15T00:30:43.230Z,992.63
2023-01-15T00:31:43.215Z,992.59
2023-01-15T00:32:43.212Z,992.52
2023-01-15T00:33:43.192Z,992.56
2023-01-15T00:34:43.205Z,992.51
2023-01-15T00:35:43.169Z,992.50
2023-01-15T00:36:43.161Z,992.48
2023-01-15T00:37:43.154Z,992.51
2023-01-15T00:38:43.142Z,992.36
2023-01-15T00:39:43.133Z,992.48
2023-01-15T00:40:43.129Z,992.38
2023-01-15T00:41:43.107Z,992.40
2023-01-15T00:42:43.107Z,992.30
2023-01-15T00:43:44.100Z,992.31
2023-01-15T00:44:43.075Z,992.28
2023-01-15T00:45:43.074Z,992.21
2023-01-15T00:46:43.101Z,992.20
2023-01-15T00:47:43.044Z,992.16
2023-01-15T00:48:43.033Z,992.21
2023-01-15T00:49:43.024Z,992.21
2023-01-15T00:50:43.021Z,992.17
2023-01-15T00:51:43.009Z,992.18
2023-01-15T00:52:43.001Z,992.19
2023-01-15T00:53:42.990Z,992.22
2023-01-15T00:54:42.964Z,992.29
2023-01-15T00:55:42.968Z,992.32
2023-01-15T00:56:42.943Z,992.23
2023-01-15T00:57:42.958Z,992.27
2023-01-15T00:58:42.940Z,992.26
2023-01-15T00:59:42.973Z,992.23
2023-01-15T01:00:42.950Z,992.23
2023-01-15T01:01:43.034Z,992.25
2023-01-15T01:02:42.916Z,992.22
2023-01-15T01:03:42.868Z,992.18
2023-01-15T01:04:42.854Z,992.08
2023-01-15T01:05:42.861Z,992.11
2023-01-15T01:06:42.840Z,992.10
2023-01-15T01:07:42.821Z,992.07
2023-01-15T01:08:42.814Z,992.00
2023-01-15T01:09:42.799Z,992.03
2023-01-15T01:10:42.809Z,992.00
2023-01-15T01:11:42.781Z,992.05
2023-01-15T01:12:42.770Z,992.06
2023-01-15T01:13:42.759Z,992.03
2023-01-15T01:14:42.745Z,992.02
2023-01-15T01:15:42.745Z,992.07
2023-01-15T01:16:42.728Z,992.06
2023-01-15T01:17:42.716Z,992.02
2023-01-15T01:18:42.704Z,992.04
2023-01-15T01:19:42.702Z,992.08
2023-01-15T01:20:42.693Z,992.06
2023-01-15T01:21:42.677Z,992.04
2023-01-15T01:22:42.662Z,992.07
2023-01-15T01:23:42.647Z,992.06
2023-01-15T01:24:42.650Z,992.05
2023-01-15T01:25:42.658Z,991.95
2023-01-15T01:26:42.616Z,991.93
2023-01-15T01:27:42.604Z,992.01
2023-01-15T01:28:42.609Z,991.99
2023-01-15T01:29:42.585Z,992.13
2023-01-15T01:30:42.592Z,992.17
2023-01-15T01:31:42.615Z,992.17
2023-01-15T01:32:42.555Z,992.20
2023-01-15T01:33:42.539Z,992.25
2023-01-15T01:34:42.533Z,992.21
2023-01-15T01:35:42.640Z,992.26
2023-01-15T01:36:42.508Z,992.22
2023-01-15T01:37:42.498Z,992.11
2023-01-15T01:38:42.488Z,992.12
2023-01-15T01:39:42.474Z,992.07
2023-01-15T01:40:42.493Z,992.10
2023-01-15T01:41:42.451Z,992.06
2023-01-15T01:42:42.452Z,992.00
2023-01-15T01:43:42.430Z,991.97
2023-01-15T01:44:42.421Z,991.90
2023-01-15T01:45:42.443Z,991.86
2023-01-15T01:46:42.400Z,991.92
2023-01-15T01:47:42.415Z,991.88
2023-01-15T01:48:42.387Z,991.91
2023-01-15T01:49:42.383Z,991.91
2023-01-15T01:50:42.368Z,991.91
2023-01-15T01:51:42.346Z,991.94
2023-01-15T01:52:42.336Z,991.99
2023-01-15T01:53:42.322Z,991.99
2023-01-15T01:54:42.319Z,992.01
2023-01-15T01:55:42.320Z,991.97
2023-01-15T01:56:42.292Z,992.02
2023-01-15T01:57:42.284Z,992.05
2023-01-15T01:58:42.271Z,992.05
2023-01-15T01:59:42.261Z,992.04
2023-01-15T02:00:42.313Z,992.00
2023-01-15T02:01:42.363Z,992.00
2023-01-15T02:02:42.402Z,992.02
2023-01-15T02:03:42.214Z,992.04
2023-01-15T02:04:42.206Z,992.07
2023-01-15T02:05:42.205Z,991.95
2023-01-15T02:06:42.182Z,991.96
2023-01-15T02:07:42.176Z,991.93
2023-01-15T02:08:42.163Z,991.89
2023-01-15T02:09:42.151Z,991.89
2023-01-15T02:10:42.149Z,991.89
2023-01-15T02:11:42.131Z,991.99
2023-01-15T02:12:42.135Z,991.96
2023-01-15T02:13:42.110Z,991.99
2023-01-15T02:14:42.100Z,991.96
2023-01-15T02:15:42.096Z,992.00
2023-01-15T02:16:42.201Z,991.95
2023-01-15T02:17:42.072Z,991.86
2023-01-15T02:18:42.052Z,991.84
2023-01-15T02:19:42.067Z,991.74
2023-01-15T02:20:42.053Z,991.73
2023-01-15T02:21:42.018Z,991.78
2023-01-15T02:22:42.008Z,991.81
2023-01-15T02:23:41.999Z,991.88
2023-01-15T02:24:41.987Z,991.89
2023-01-15T02:25:41.995Z,991.94
2023-01-15T02:26:41.967Z,991.95
2023-01-15T02:27:41.953Z,991.96
2023-01-15T02:28:41.951Z,991.98
2023-01-15T02:29:41.934Z,991.94
2023-01-15T02:30:41.933Z,991.94
2023-01-15T02:31:42.030Z,991.93
2023-01-15T02:32:41.905Z,991.94
2023-01-15T02:33:41.889Z,991.90
2023-01-15T02:34:41.879Z,991.92
2023-01-15T02:35:41.875Z,991.96
2023-01-15T02:36:41.855Z,991.93
2023-01-15T02:37:41.849Z,991.90
2023-01-15T02:38:41.839Z,991.91
2023-01-15T02:39:41.822Z,991.92
2023-01-15T02:40:41.827Z,991.87
2023-01-15T02:41:41.803Z,991.82
2023-01-15T02:42:41.794Z,991.82
2023-01-15T02:43:41.780Z,991.78
2023-01-15T02:44:41.770Z,991.77
2023-01-15T02:45:41.811Z,991.73
2023-01-15T02:46:41.750Z,991.73
2023-01-15T02:47:41.735Z,991.73
2023-01-15T02:48:41.731Z,991.72
2023-01-15T02:49:41.714Z,991.74
2023-01-15T02:50:41.718Z,991.75
2023-01-15T02:51:41.722Z,991.68
2023-01-15T02:52:41.685Z,991.70
2023-01-15T02:53:41.671Z,991.70
2023-01-15T02:54:41.662Z,991.69
2023-01-15T02:55:41.668Z,991.74
2023-01-15T02:56:41.640Z,991.69
2023-01-15T02:57:41.628Z,991.72
2023-01-15T02:58:41.622Z,991.76
2023-01-15T02:59:41.612Z,991.73
2023-01-15T03:00:41.662Z,991.75
2023-01-15T03:01:41.719Z,991.74
2023-01-15T03:02:41.619Z,991.78
2023-01-15T03:03:41.571Z,991.73
2023-01-15T03:04:41.553Z,991.72
2023-01-15T03:05:41.568Z,991.76
2023-01-15T03:06:41.545Z,991.76
2023-01-15T03:07:41.527Z,991.75
2023-01-15T03:08:41.512Z,991.73
2023-01-15T03:09:41.500Z,991.74
2023-01-15T03:10:41.500Z,991.75
2023-01-15T03:11:41.483Z,991.71
2023-01-15T03:12:41.470Z,991.75
2023-01-15T03:13:41.467Z,991.71
2023-01-15T03:14:41.452Z,991.70
2023-01-15T03:15:41.483Z,991.72
2023-01-15T03:16:41.465Z,991.72
2023-01-15T03:17:41.414Z,991.74
2023-01-15T03:18:41.401Z,991.71
2023-01-15T03:19:41.390Z,991.68
2023-01-15T03:20:41.389Z,991.63
2023-01-15T03:21:41.369Z,991.72
2023-01-15T03:22:41.356Z,991.73
2023-01-15T03:23:41.351Z,991.71
2023-01-15T03:24:41.345Z,991.71
2023-01-15T03:25:41.341Z,991.69
2023-01-15T03:26:41.314Z,991.70
2023-01-15T03:27:41.309Z,991.73
2023-01-15T03:28:41.293Z,991.67
2023-01-15T03:29:41.299Z,991.67
2023-01-15T03:30:41.290Z,991.67
2023-01-15T03:31:41.261Z,991.69
2023-01-15T03:32:41.251Z,991.65
2023-01-15T03:33:41.241Z,991.65
2023-01-15T03:34:41.227Z,991.64
2023-01-15T03:35:41.228Z,991.64
2023-01-15T03:36:41.205Z,991.65
2023-01-15T03:37:41.197Z,991.63
2023-01-15T03:38:41.191Z,991.65
2023-01-15T03:39:41.182Z,991.67
2023-01-15T03:40:41.177Z,991.68
2023-01-15T03:41:41.151Z,991.75
2023-01-15T03:42:41.141Z,991.74
2023-01-15T03:43:41.131Z,991.72
2023-01-15T03:45:34.766Z,991.76
2023-01-15T03:46:34.760Z,991.78
2023-01-15T03:47:34.739Z,991.79
2023-01-15T03:48:34.725Z,991.75
2023-01-15T03:49:34.723Z,991.83
2023-01-15T03:50:34.706Z,991.85
2023-01-15T03:51:34.727Z,991.83
2023-01-15T03:52:34.694Z,991.83
2023-01-15T03:53:34.677Z,991.81
2023-01-15T03:54:34.681Z,991.77
2023-01-15T03:55:34.654Z,991.77
2023-01-15T03:56:34.659Z,991.76
2023-01-15T03:57:34.631Z,991.81
2023-01-15T03:58:34.621Z,991.74
2023-01-15T03:59:34.610Z,991.72
2023-01-15T04:00:34.600Z,991.71
2023-01-15T04:01:34.711Z,991.68
2023-01-15T04:02:34.576Z,991.72
2023-01-15T04:03:34.573Z,991.70
2023-01-15T04:04:34.639Z,991.73
2023-01-15T04:05:34.545Z,991.67
2023-01-15T04:06:34.563Z,991.70
2023-01-15T04:07:34.526Z,991.71
2023-01-15T04:08:34.518Z,991.70
2023-01-15T04:09:34.503Z,991.79
2023-01-15T04:10:34.502Z,991.89
2023-01-15T04:11:34.505Z,991.95
2023-01-15T04:12:34.483Z,992.11
2023-01-15T04:13:34.463Z,992.22
2023-01-15T04:14:34.447Z,992.01
2023-01-15T04:15:34.460Z,992.32
2023-01-15T04:16:34.454Z,992.30
2023-01-15T04:17:34.418Z,992.38
2023-01-15T04:18:34.417Z,992.46
2023-01-15T04:19:34.435Z,992.44
2023-01-15T04:20:34.384Z,992.44
2023-01-15T04:21:34.392Z,992.49
2023-01-15T04:22:34.361Z,992.50
2023-01-15T04:23:34.360Z,992.42
2023-01-15T04:24:34.341Z,992.48
2023-01-15T04:25:34.374Z,992.61
2023-01-15T04:26:34.343Z,992.67
2023-01-15T04:27:34.310Z,992.62
2023-01-15T04:28:34.296Z,992.65
2023-01-15T04:29:34.303Z,992.61
2023-01-15T04:30:34.276Z,992.79
2023-01-15T04:31:34.279Z,992.72
2023-01-15T04:32:34.257Z,992.73
2023-01-15T04:33:34.245Z,992.82
2023-01-15T04:34:34.234Z,992.72
2023-01-15T04:35:34.228Z,992.87
2023-01-15T04:36:34.222Z,992.89
2023-01-15T04:37:34.203Z,992.84
2023-01-15T04:38:34.192Z,992.86
2023-01-15T04:39:34.181Z,992.86
2023-01-15T04:40:34.167Z,992.79
2023-01-15T04:41:34.179Z,992.88
2023-01-15T04:42:34.154Z,992.86
2023-01-15T04:43:34.145Z,992.85
2023-01-15T04:44:34.125Z,993.00
2023-01-15T04:45:34.117Z,993.05
2023-01-15T04:46:34.217Z,992.98
2023-01-15T04:47:34.092Z,993.00
2023-01-15T04:48:34.081Z,993.11
2023-01-15T04:49:34.077Z,993.09
2023-01-15T04:50:34.057Z,993.20
2023-01-15T04:51:34.054Z,993.24
2023-01-15T04:52:34.037Z,993.25
2023-01-15T04:53:34.030Z,993.22
2023-01-15T04:54:34.017Z,993.20
2023-01-15T04:55:34.013Z,993.22
2023-01-15T04:56:34.002Z,993.22
2023-01-15T04:57:33.983Z,993.26
2023-01-15T04:58:33.980Z,993.31
2023-01-15T04:59:33.965Z,993.24
2023-01-15T05:00:33.947Z,993.26
2023-01-15T05:01:34.033Z,993.23
2023-01-15T05:02:34.046Z,993.24
2023-01-15T05:03:33.917Z,993.23
2023-01-15T05:04:33.993Z,993.25
2023-01-15T05:05:33.917Z,993.29
2023-01-15T05:06:33.933Z,993.41
2023-01-15T05:07:33.875Z,993.44
2023-01-15T05:08:33.865Z,993.40
2023-01-15T05:09:33.860Z,993.33
2023-01-15T05:10:33.840Z,993.38
2023-01-15T05:11:33.852Z,993.32
2023-01-15T05:12:33.834Z,993.30
2023-01-15T05:13:33.810Z,993.23
2023-01-15T05:14:33.798Z,993.30
2023-01-15T05:15:33.804Z,993.31
2023-01-15T05:16:33.799Z,993.27
2023-01-15T05:17:33.772Z,993.32
2023-01-15T05:18:33.755Z,993.29
2023-01-15T05:19:33.753Z,993.28
2023-01-15T05:20:33.733Z,993.26
2023-01-15T05:21:33.777Z,993.24
2023-01-15T05:22:33.740Z,993.22
2023-01-15T05:23:33.701Z,993.15
2023-01-15T05:24:33.689Z,993.24
2023-01-15T05:25:33.682Z,993.18
2023-01-15T05:26:33.684Z,993.20
2023-01-15T05:27:33.664Z,993.26
2023-01-15T05:28:33.651Z,993.29
2023-01-15T05:29:33.640Z,993.32
2023-01-15T05:30:33.628Z,993.28
2023-01-15T05:31:33.636Z,993.24
2023-01-15T05:32:33.607Z,993.26
2023-01-15T05:33:33.607Z,993.26
2023-01-15T05:34:33.586Z,993.29
2023-01-15T05:35:33.575Z,993.37
2023-01-15T05:36:33.618Z,993.45
2023-01-15T05:37:33.553Z,993.43
2023-01-15T05:38:33.548Z,993.45
2023-01-15T05:39:33.535Z,993.44
2023-01-15T05:40:33.520Z,993.41
2023-01-15T05:41:33.536Z,993.38
2023-01-15T05:42:33.502Z,993.32
2023-01-15T05:43:33.491Z,993.33
2023-01-15T05:44:33.481Z,993.34
2023-01-15T05:45:33.470Z,993.35
2023-01-15T05:46:33.549Z,993.35
2023-01-15T05:47:33.453Z,993.35
2023-01-15T05:48:33.436Z,993.34
2023-01-15T05:49:33.433Z,993.33
2023-01-15T05:50:33.422Z,993.35
2023-01-15T05:51:33.422Z,993.31
2023-01-15T05:52:33.393Z,993.32
2023-01-15T05:53:33.384Z,993.38
2023-01-15T05:54:33.386Z,993.38
2023-01-15T05:55:33.366Z,993.41
2023-01-15T05:56:33.363Z,993.42
2023-01-15T05:57:33.341Z,993.36
2023-01-15T05:58:33.335Z,993.27
2023-01-15T05:59:33.336Z,993.27
2023-01-15T06:00:33.311Z,993.23
2023-01-15T06:01:33.358Z,993.30
2023-01-15T06:02:33.356Z,993.27
2023-01-15T06:03:33.357Z,993.29
2023-01-15T06:04:33.276Z,993.23
2023-01-15T06:05:33.256Z,993.25
2023-01-15T06:06:33.260Z,993.24
2023-01-15T06:07:33.245Z,993.28
2023-01-15T06:08:33.224Z,993.27
2023-01-15T06:09:33.217Z,993.29
2023-01-15T06:10:33.205Z,993.33
2023-01-15T06:11:33.207Z,993.32
2023-01-15T06:12:33.188Z,993.25
2023-01-15T06:13:33.171Z,993.19
2023-01-15T06:14:33.159Z,993.09
2023-01-15T06:15:33.163Z,993.08
2023-01-15T06:16:33.151Z,993.12
2023-01-15T06:17:33.129Z,993.10
2023-01-15T06:18:33.115Z,993.12
2023-01-15T06:19:33.106Z,993.17
2023-01-15T06:20:33.096Z,993.13
2023-01-15T06:21:33.128Z,993.19
2023-01-15T06:22:33.079Z,993.18
2023-01-15T06:23:33.065Z,993.14
2023-01-15T06:24:33.053Z,993.16
2023-01-15T06:25:33.051Z,993.18
2023-01-15T06:26:33.043Z,993.15
2023-01-15T06:27:33.025Z,993.16
2023-01-15T06:28:33.010Z,993.18
2023-01-15T06:29:33.002Z,993.16
2023-01-15T06:30:32.992Z,993.12
2023-01-15T06:31:33.114Z,993.10
2023-01-15T06:32:32.992Z,993.13
2023-01-15T06:33:32.958Z,993.20
2023-01-15T06:34:32.954Z,993.27
2023-01-15T06:35:32.942Z,993.33
2023-01-15T06:36:32.942Z,993.36
2023-01-15T06:37:32.918Z,993.36
2023-01-15T06:38:32.904Z,993.36
2023-01-15T06:39:32.924Z,993.38
2023-01-15T06:40:32.882Z,993.43
2023-01-15T06:41:32.882Z,993.44
2023-01-15T06:42:32.859Z,993.40
2023-01-15T06:43:32.870Z,993.40
2023-01-15T06:44:32.841Z,993.39
2023-01-15T06:45:32.829Z,993.36
2023-01-15T06:46:32.866Z,993.35
2023-01-15T06:47:32.843Z,993.31
2023-01-15T06:48:32.803Z,993.29
2023-01-15T06:49:32.786Z,993.33
2023-01-15T06:50:32.783Z,993.32
2023-01-15T06:51:32.786Z,993.34
2023-01-15T06:52:32.762Z,993.31
2023-01-15T06:53:32.743Z,993.34
2023-01-15T06:54:32.740Z,993.33
2023-01-15T06:55:32.731Z,993.35
2023-01-15T06:56:32.717Z,993.34
2023-01-15T06:57:32.716Z,993.33
2023-01-15T06:58:32.697Z,993.39
2023-01-15T06:59:32.682Z,993.35
2023-01-15T07:00:32.717Z,993.34
2023-01-15T07:01:32.713Z,993.40
2023-01-15T07:02:32.662Z,993.42
2023-01-15T07:03:32.717Z,993.38
2023-01-15T07:04:32.632Z,993.39
2023-01-15T07:05:32.615Z,993.46
2023-01-15T07:06:32.608Z,993.42
2023-01-15T07:07:32.606Z,993.49
2023-01-15T07:08:32.591Z,993.54
2023-01-15T07:09:32.671Z,993.57
2023-01-15T07:10:32.564Z,993.58
2023-01-15T07:11:32.573Z,993.56
2023-01-15T07:12:32.558Z,993.58
2023-01-15T07:13:32.530Z,993.64
2023-01-15T07:14:32.524Z,993.73
2023-01-15T07:15:32.517Z,993.70
2023-01-15T07:16:32.579Z,993.65
2023-01-15T07:17:32.507Z,993.66
2023-01-15T07:18:32.479Z,993.64
2023-01-15T07:19:32.476Z,993.67
2023-01-15T07:20:32.465Z,993.63
2023-01-15T07:21:32.449Z,993.65
2023-01-15T07:22:32.451Z,993.64
2023-01-15T07:23:32.426Z,993.61
2023-01-15T07:24:32.423Z,993.65
2023-01-15T07:25:32.403Z,993.59
2023-01-15T07:26:32.411Z,993.67
2023-01-15T07:27:32.404Z,993.61
2023-01-15T07:28:32.380Z,993.61
2023-01-15T07:29:32.364Z,993.61
2023-01-15T07:30:32.356Z,993.60
2023-01-15T07:31:32.444Z,993.63
2023-01-15T07:32:32.351Z,993.66
2023-01-15T07:33:32.326Z,993.62
2023-01-15T07:34:32.310Z,993.63
2023-01-15T07:35:32.305Z,993.70
2023-01-15T07:36:32.298Z,993.69
2023-01-15T07:37:32.289Z,993.76
2023-01-15T07:38:32.268Z,993.77
2023-01-15T07:39:32.261Z,993.78
2023-01-15T07:40:32.253Z,993.74
2023-01-15T07:41:32.250Z,993.76
2023-01-15T07:42:32.242Z,993.67
2023-01-15T07:43:32.213Z,993.64
2023-01-15T07:44:32.206Z,993.67
2023-01-15T07:45:32.226Z,993.63
2023-01-15T07:46:32.188Z,993.66
2023-01-15T07:47:32.195Z,993.69
2023-01-15T07:48:32.164Z,993.75
2023-01-15T07:49:32.173Z,993.78
2023-01-15T07:50:32.148Z,993.80
2023-01-15T07:51:32.132Z,993.76
2023-01-15T07:52:32.167Z,993.81
2023-01-15T07:53:32.109Z,993.88
2023-01-15T07:54:32.098Z,993.88
2023-01-15T07:55:32.085Z,993.90
2023-01-15T07:56:32.077Z,993.93
2023-01-15T07:57:32.073Z,993.89
2023-01-15T07:58:32.053Z,993.89
2023-01-15T07:59:32.042Z,993.91
2023-01-15T08:00:32.037Z,993.95
2023-01-15T08:01:32.180Z,993.91
2023-01-15T08:02:32.019Z,993.89
2023-01-15T08:03:32.064Z,993.92
2023-01-15T08:04:31.989Z,993.95
2023-01-15T08:05:31.977Z,993.95
2023-01-15T08:06:31.968Z,993.95
2023-01-15T08:07:31.972Z,993.99
2023-01-15T08:08:31.952Z,993.96
2023-01-15T08:09:31.944Z,993.98
2023-01-15T08:10:31.925Z,993.97
2023-01-15T08:11:31.915Z,993.99
2023-01-15T08:12:31.927Z,993.99
2023-01-15T08:13:31.897Z,993.96
2023-01-15T08:14:31.885Z,993.84
2023-01-15T08:15:31.873Z,993.82
2023-01-15T08:16:31.886Z,993.80
2023-01-15T08:17:31.858Z,993.71
2023-01-15T08:18:31.895Z,993.67
2023-01-15T08:19:31.849Z,993.67
2023-01-15T08:20:31.840Z,993.60
2023-01-15T08:21:31.815Z,993.62
2023-01-15T08:22:31.843Z,993.64
2023-01-15T08:23:31.818Z,993.73
2023-01-15T08:24:31.805Z,993.75
2023-01-15T08:25:31.766Z,993.73
2023-01-15T08:26:31.759Z,993.72
2023-01-15T08:27:33.424Z,993.71
2023-01-15T08:28:31.757Z,993.64
2023-01-15T08:29:31.728Z,993.68
2023-01-15T08:30:31.777Z,993.72
2023-01-15T08:31:31.773Z,993.74
2023-01-15T08:32:31.734Z,993.77
2023-01-15T08:33:31.687Z,993.78
2023-01-15T08:34:31.679Z,993.82
2023-01-15T08:35:31.663Z,993.82
2023-01-15T08:36:31.656Z,993.81
2023-01-15T08:37:31.667Z,993.81
2023-01-15T08:38:31.635Z,993.87
2023-01-15T08:39:31.625Z,993.87
2023-01-15T08:40:31.618Z,993.85
2023-01-15T08:41:31.599Z,993.89
2023-01-15T08:42:31.603Z,993.88
2023-01-15T08:43:31.570Z,993.87
2023-01-15T08:44:31.562Z,993.84
2023-01-15T08:45:31.581Z,993.89
2023-01-15T08:46:31.537Z,993.89
2023-01-15T08:47:31.572Z,993.88
2023-01-15T08:48:31.536Z,993.93
2023-01-15T08:49:31.513Z,993.95
2023-01-15T08:50:31.524Z,993.94
2023-01-15T08:51:31.496Z,993.92
2023-01-15T08:52:31.515Z,993.89
2023-01-15T08:53:31.462Z,993.87
2023-01-15T08:54:31.460Z,993.85
2023-01-15T08:55:31.440Z,993.89
2023-01-15T08:56:31.444Z,993.84
2023-01-15T08:57:31.432Z,993.89
2023-01-15T08:58:31.410Z,993.84
2023-01-15T08:59:31.402Z,993.88
2023-01-15T09:00:31.386Z,993.90
2023-01-15T09:01:31.529Z,993.86
2023-01-15T09:02:31.379Z,993.94
2023-01-15T09:03:31.353Z,993.96
2023-01-15T09:04:31.371Z,993.91
2023-01-15T09:05:31.332Z,993.95
2023-01-15T09:06:31.321Z,994.04
2023-01-15T09:07:31.344Z,994.07
2023-01-15T09:08:31.307Z,994.13
2023-01-15T09:09:31.293Z,994.12
2023-01-15T09:10:31.276Z,994.13
2023-01-15T09:11:31.269Z,994.17
2023-01-15T09:12:31.272Z,994.17
2023-01-15T09:13:31.244Z,994.18
2023-01-15T09:14:57.990Z,994.21
2023-01-15T09:15:32.219Z,994.26
2023-01-15T09:16:31.261Z,994.17
2023-01-15T09:17:31.233Z,994.15
2023-01-15T09:18:31.194Z,994.15
2023-01-15T09:19:31.176Z,994.16
2023-01-15T09:20:33.017Z,994.17
2023-01-15T09:21:31.166Z,994.20
2023-01-15T09:22:31.379Z,994.21
2023-01-15T09:23:31.145Z,994.17
2023-01-15T09:24:31.126Z,994.08
2023-01-15T09:25:31.117Z,994.14
2023-01-15T09:26:31.102Z,994.15
2023-01-15T09:27:31.104Z,994.15
2023-01-15T09:28:31.080Z,994.14
2023-01-15T09:29:31.069Z,994.16
2023-01-15T09:30:31.112Z,994.20
2023-01-15T09:31:31.049Z,994.19
2023-01-15T09:32:31.052Z,994.15
2023-01-15T09:33:31.026Z,994.13
2023-01-15T09:34:31.019Z,994.13
2023-01-15T09:35:31.009Z,994.11
2023-01-15T09:36:30.997Z,994.20
2023-01-15T09:37:30.996Z,994.21
2023-01-15T09:38:30.975Z,994.24
2023-01-15T09:39:31.013Z,994.24
2023-01-15T09:40:30.953Z,994.23
2023-01-15T09:41:30.939Z,994.28
2023-01-15T09:42:30.943Z,994.24
2023-01-15T09:43:30.918Z,994.25
2023-01-15T09:44:30.919Z,994.29
2023-01-15T09:45:30.905Z,994.30
2023-01-15T09:46:30.900Z,994.31
2023-01-15T09:47:30.894Z,994.34
2023-01-15T09:48:30.866Z,994.37
2023-01-15T09:49:30.867Z,994.38
2023-01-15T09:50:30.845Z,994.38
2023-01-15T09:51:30.835Z,994.37
2023-01-15T09:52:30.852Z,994.34
2023-01-15T09:53:30.827Z,994.31
2023-01-15T09:54:30.804Z,994.31
2023-01-15T09:55:30.796Z,994.26
2023-01-15T09:56:30.785Z,994.22
2023-01-15T09:57:30.805Z,994.22
2023-01-15T09:58:30.759Z,994.32
2023-01-15T09:59:30.750Z,994.24
2023-01-15T10:00:30.762Z,994.33
2023-01-15T10:01:30.882Z,994.31
2023-01-15T10:02:30.749Z,994.25
2023-01-15T10:03:30.736Z,994.22
2023-01-15T10:04:30.804Z,994.28
2023-01-15T10:05:30.700Z,994.30
2023-01-15T10:06:30.699Z,994.26
2023-01-15T10:07:30.669Z,994.25
2023-01-15T10:08:30.653Z,994.21
2023-01-15T10:09:30.637Z,994.22
2023-01-15T10:10:30.627Z,994.20
2023-01-15T10:11:30.615Z,994.11
2023-01-15T10:12:30.637Z,994.18
2023-01-15T10:13:30.611Z,994.09
2023-01-15T10:14:30.584Z,994.09
2023-01-15T10:15:30.614Z,994.04
2023-01-15T10:16:30.564Z,994.13
2023-01-15T10:17:30.561Z,994.08
2023-01-15T10:18:30.577Z,994.11
2023-01-15T10:19:44.015Z,994.15
2023-01-15T10:20:31.518Z,994.09
2023-01-15T10:21:30.512Z,994.08
2023-01-15T10:22:30.497Z,994.14
2023-01-15T10:23:30.500Z,994.07
2023-01-15T10:24:30.498Z,994.16
2023-01-15T10:25:30.464Z,994.12
2023-01-15T10:26:30.462Z,994.05
2023-01-15T10:27:30.440Z,994.15
2023-01-15T10:28:30.443Z,994.22
2023-01-15T10:29:30.468Z,994.12
2023-01-15T10:30:30.432Z,994.11
2023-01-15T10:31:30.396Z,994.10
2023-01-15T10:32:30.389Z,994.16
2023-01-15T10:33:30.710Z,994.08
2023-01-15T10:34:30.363Z,994.11
2023-01-15T10:35:30.357Z,994.09
2023-01-15T10:36:30.368Z,994.10
2023-01-15T10:37:30.329Z,994.14
2023-01-15T10:38:30.335Z,994.11
2023-01-15T10:39:30.349Z,994.05
2023-01-15T10:40:30.299Z,994.01
2023-01-15T10:41:30.312Z,994.00
2023-01-15T10:42:30.306Z,994.03
2023-01-15T10:43:30.284Z,994.04
2023-01-15T10:44:31.611Z,994.02
2023-01-15T10:45:30.249Z,994.04
2023-01-15T10:46:30.289Z,994.10
2023-01-15T10:47:30.221Z,994.09
2023-01-15T10:48:30.228Z,994.13
2023-01-15T10:49:30.204Z,994.15
2023-01-15T10:50:30.198Z,994.13
2023-01-15T10:51:30.178Z,994.14
2023-01-15T10:52:30.170Z,994.17
2023-01-15T10:53:30.171Z,994.15
2023-01-15T10:54:30.148Z,994.14
2023-01-15T10:55:30.137Z,994.15
2023-01-15T10:56:30.144Z,994.09
2023-01-15T10:57:30.112Z,994.14
2023-01-15T10:58:30.119Z,994.16
2023-01-15T10:59:30.088Z,994.14
2023-01-15T11:00:30.094Z,994.18
2023-01-15T11:01:30.179Z,994.18
2023-01-15T11:02:30.196Z,994.31
2023-01-15T11:03:30.069Z,994.22
2023-01-15T11:04:30.049Z,994.23
2023-01-15T11:05:30.031Z,994.19
2023-01-15T11:06:30.029Z,994.19
2023-01-15T11:07:30.021Z,994.20
2023-01-15T11:09:07.453Z,994.27
2023-01-15T11:09:31.015Z,994.26
2023-01-15T11:10:29.970Z,994.29
2023-01-15T11:11:29.961Z,994.23
2023-01-15T11:12:29.946Z,994.28
2023-01-15T11:13:29.954Z,994.31
2023-01-15T11:14:29.938Z,994.28
2023-01-15T11:15:29.964Z,994.31
2023-01-15T11:16:29.976Z,994.29
2023-01-15T11:17:29.902Z,994.28
2023-01-15T11:18:29.912Z,994.29
2023-01-15T11:19:29.874Z,994.29
2023-01-15T11:20:29.872Z,994.26
2023-01-15T11:21:29.853Z,994.30
2023-01-15T11:22:29.849Z,994.28
2023-01-15T11:23:29.852Z,994.23
2023-01-15T11:24:29.815Z,994.20
2023-01-15T11:25:29.813Z,994.27
2023-01-15T11:26:29.803Z,994.26
2023-01-15T11:27:29.787Z,994.26
2023-01-15T11:28:29.794Z,994.19
2023-01-15T11:29:29.768Z,994.22
2023-01-15T11:30:29.763Z,994.24
2023-01-15T11:31:29.790Z,994.26
2023-01-15T11:32:29.731Z,994.23
2023-01-15T11:33:29.735Z,994.27
2023-01-15T11:34:29.707Z,994.28
2023-01-15T11:35:29.700Z,994.21
2023-01-15T11:36:29.699Z,994.24
2023-01-15T11:37:29.695Z,994.24
2023-01-15T11:38:29.696Z,994.28
2023-01-15T11:39:29.670Z,994.35
2023-01-15T11:40:29.646Z,994.24
2023-01-15T11:41:29.635Z,994.21
2023-01-15T11:42:29.618Z,994.19
2023-01-15T11:43:29.623Z,994.19
2023-01-15T11:44:29.596Z,994.18
2023-01-15T11:45:29.604Z,994.14
2023-01-15T11:46:29.654Z,994.12
2023-01-15T11:47:29.601Z,994.13
2023-01-15T11:48:29.596Z,994.15
2023-01-15T11:49:29.574Z,994.11
2023-01-15T11:50:29.533Z,994.07
2023-01-15T11:51:29.596Z,994.10
2023-01-15T11:52:29.510Z,994.21
2023-01-15T11:53:29.559Z,994.19
2023-01-15T11:54:29.508Z,994.12
2023-01-15T11:55:29.480Z,994.11
2023-01-15T11:56:29.465Z,994.09
2023-01-15T11:57:29.467Z,994.14
2023-01-15T11:58:29.455Z,994.16
2023-01-15T11:59:29.440Z,994.15
2023-01-15T12:00:29.440Z,994.18
2023-01-15T12:01:29.475Z,994.14
2023-01-15T12:02:29.403Z,994.11
2023-01-15T12:03:29.490Z,994.08
2023-01-15T12:04:29.524Z,994.06
2023-01-15T12:05:29.415Z,994.12
2023-01-15T12:06:29.362Z,994.15
2023-01-15T12:07:29.349Z,994.17
2023-01-15T12:08:29.387Z,994.14
2023-01-15T12:09:29.323Z,994.10
2023-01-15T12:10:29.313Z,994.13
2023-01-15T12:11:29.310Z,994.14
2023-01-15T12:12:29.290Z,994.08
2023-01-15T12:13:29.312Z,994.04
2023-01-15T12:14:29.267Z,994.05
2023-01-15T12:15:29.274Z,994.07
2023-01-15T12:16:29.307Z,994.06
2023-01-15T12:17:29.241Z,994.09
2023-01-15T12:18:29.235Z,994.10
2023-01-15T12:19:29.220Z,994.08
2023-01-15T12:20:29.203Z,994.03
2023-01-15T12:21:29.226Z,994.07
2023-01-15T12:22:29.183Z,994.18
2023-01-15T12:23:29.183Z,994.14
2023-01-15T12:24:29.160Z,994.12
2023-01-15T12:25:29.149Z,994.15
2023-01-15T12:26:29.145Z,994.15
2023-01-15T12:27:29.127Z,994.11
2023-01-15T12:28:29.151Z,994.10
2023-01-15T12:29:29.116Z,994.10